• Join FlightAware (Why Join?)
  • Login
  • US Flag 
07:54PM EDT


 

Airport Tracker/Info


-or-


 

Live Flight TrackerFlight Track Log ✈ N9955V ✈ 17-Oct-2013 ✈ KTMB - KSGJ

Flight Track Log - Related Links

Times and Time Zones

All times are in EDT time to prevent confusion due to time zone crossing. See the N9955V flight status page for this flight to view local times or setup timezone preferences in your user account.

Time Position Orientation Groundspeed Altitude Reporting Facility
EDT Latitude Longitude Course Direction KTS MPH feet Rate Location/Type
09:38PM 26.6478 -80.6314 350° North 89 102 6,500  Level Miami Center
09:39PM 26.6769 -80.6369 350° North 89 102 6,500  Level Miami Center
09:40PM 26.6956 -80.6419 347° North 89 102 6,500 -60 Level Miami Center
09:41PM 26.7244 -80.6500 346° North 89 102 6,400 -60 Descending Miami Center
09:42PM 26.7475 -80.6531 353° North 89 102 6,400  Level Miami Center
09:43PM 26.7725 -80.6586 349° North 89 102 6,400  Level Miami Center
09:44PM 26.7953 -80.6617 353° North 89 102 6,500  Climbing Miami Center
09:45PM 26.8222 -80.6672 350° North 89 102 6,500  Level Miami Center
09:46PM 26.8450 -80.6725 348° North 89 102 6,600  Climbing Miami Center
09:47PM 26.8722 -80.6758 354° North 89 102 6,600  Level Miami Center
09:48PM 26.8992 -80.6836 346° North 89 102 6,600  Level Miami Center
09:49PM 26.9178 -80.6867 352° North 89 102 6,600 -60 Level Miami Center
09:50PM 26.9447 -80.6922 350° North 101 116 6,500 -60 Descending Miami Center
09:51PM 26.9697 -80.6975 349° North 101 116 6,500  Level Miami Center
09:52PM 26.9925 -80.7031 348° North 91 105 6,500 -60 Level Miami Center
09:53PM 27.0133 -80.7083 347° North 85 98 6,400  Descending Miami Center
09:54PM 27.0361 -80.7139 348° North 85 98 6,500 60 Climbing Miami Center
09:55PM 27.0650 -80.7217 347° North 85 98 6,600  Climbing Miami Center
09:56PM 27.0900 -80.7247 354° North 85 98 6,600  Level Miami Center
09:57PM 27.1150 -80.7303 349° North 85 98 6,600  Level Miami Center
09:58PM 27.1400 -80.7358 349° North 85 98 6,600  Level Miami Center
09:59PM 27.1669 -80.7414 350° North 85 98 6,600  Level Miami Center
10:00PM 27.1961 -80.7447 354° North 90 104 6,600  Level Miami Center
10:01PM 27.2231 -80.7503 350° North 90 104 6,600 -60 Level Miami Center
10:02PM 27.2458 -80.7558 348° North 90 104 6,500 -60 Descending Miami Center
10:03PM 27.2708 -80.7614 349° North 90 104 6,500  Level Miami Center
10:04PM 27.2997 -80.7669 350° North 85 98 6,500  Level Miami Center
10:05PM 27.3247 -80.7700 354° North 85 98 6,500  Level Miami Center
10:06PM 27.3497 -80.7756 349° North 85 98 6,500  Level Miami Center
10:07PM 27.3767 -80.7836 345° North 85 98 6,500  Level Miami Center
10:08PM 27.4036 -80.7892 350° North 85 98 6,500  Level Miami Center
10:09PM 27.4286 -80.7947 349° North 85 98 6,500  Level Miami Center
10:10PM 27.4533 -80.8025 344° North 85 98 6,500  Level Miami Center
10:11PM 27.4803 -80.8081 350° North 85 98 6,500  Level Miami Center
10:12PM 27.5053 -80.8161 344° North 85 98 6,500  Level Miami Center
10:13PM 27.5322 -80.8194 354° North 85 98 6,600  Climbing Miami Center
10:14PM 27.5592 -80.8272 346° North 85 98 6,600  Level Miami Center
10:15PM 27.5861 -80.8306 354° North 85 98 6,600  Level Miami Center
10:16PM 27.6131 -80.8361 350° North 85 98 6,600  Level Miami Center
10:17PM 27.6403 -80.8417 350° North 90 104 6,600 -60 Level Miami Center
10:18PM 27.6631 -80.8450 353° North 90 104 6,500  Descending Miami Center
10:19PM 27.6922 -80.8506 350° North 90 104 6,600  Climbing Miami Center
10:20PM 27.7211 -80.8564 350° North 96 110 6,600 -60 Level Miami Center
10:21PM 27.7461 -80.8619 349° North 96 110 6,500 -60 Descending Miami Center
10:22PM 27.7750 -80.8678 350° North 96 110 6,500  Level Miami Center
10:23PM 27.7981 -80.8708 353° North 96 110 6,500  Level Miami Center
10:25PM 27.8500 -80.8833 348° North 98 113 6,500  Level Orlando TRACON
10:26PM 27.8833 -80.8833 360° North 96 110 6,500  Level Orlando TRACON
10:27PM 27.9000 -80.9000 319° Northwest 100 115 6,500  Level Orlando TRACON
10:28PM 27.9333 -80.9000 360° North 99 114 6,500  Level Orlando TRACON
10:29PM 27.9500 -80.9000 360° North 98 113 6,500  Level Orlando TRACON
10:30PM 27.9833 -80.9167 336° Northwest 99 114 6,500  Level Orlando TRACON
10:31PM 28.0167 -80.9167 360° North 100 115 6,500  Level Orlando TRACON
10:32PM 28.0333 -80.9167 360° North 99 114 6,500  Level Orlando TRACON
10:33PM 28.0667 -80.9333 336° Northwest 98 113 6,500  Level Orlando TRACON
10:34PM 28.0833 -80.9333 360° North 99 114 6,500  Level Orlando TRACON
10:35PM 28.1167 -80.9333 360° North 101 116 6,500  Level Orlando TRACON
10:36PM 28.1500 -80.9333 360° North 100 115 6,500 -60 Level Orlando TRACON
10:37PM 28.1667 -80.9500 319° Northwest 101 116 6,400 -120 Descending Orlando TRACON
10:38PM 28.2000 -80.9500 360° North 100 115 6,300  Descending Orlando TRACON
10:39PM 28.2167 -80.9667 319° Northwest 98 113 6,400  Climbing Orlando TRACON
10:40PM 28.2500 -80.9667 360° North 94 108 6,400  Level Orlando TRACON
10:41PM 28.2833 -80.9667 360° North 95 109 6,500 60 Climbing Orlando TRACON
10:42PM 28.3000 -80.9833 319° Northwest 98 113 6,600  Climbing Orlando TRACON
10:43PM 28.3333 -80.9833 360° North 101 116 6,600  Level Orlando TRACON
10:44PM 28.3667 -81.0000 336° Northwest 103 119 6,600  Level Orlando TRACON
10:45PM 28.3833 -81.0000 360° North 102 117 6,600  Level Orlando TRACON
10:46PM 28.4167 -81.0000 360° North 106 122 6,600 -60 Level Orlando TRACON
10:47PM 28.4500 -81.0167 336° Northwest 107 123 6,500 -60 Descending Orlando TRACON
10:48PM 28.4833 -81.0167 360° North 107 123 6,500  Level Orlando TRACON
10:49PM 28.5000 -81.0167 360° North 106 122 6,600  Climbing Orlando TRACON
10:50PM 28.5333 -81.0333 336° Northwest 107 123 6,500 -60 Descending Orlando TRACON
10:51PM 28.5667 -81.0333 360° North 106 122 6,500  Level Orlando TRACON
10:52PM 28.5833 -81.0333 360° North 107 123 6,500  Level Orlando TRACON
10:53PM 28.6167 -81.0500 336° Northwest 102 117 6,500 -60 Level Orlando TRACON
10:54PM 28.6500 -81.0500 360° North 99 114 6,400 -60 Descending Orlando TRACON
10:55PM 28.6667 -81.0500 360° North 101 116 6,400  Level Orlando TRACON
10:56PM 28.7108 -81.0675 341° North 102 117 6,400  Level Jacksonville Center
10:57PM 28.7381 -81.0789 340° North 100 115 6,400  Level Jacksonville Center
10:58PM 28.7656 -81.0903 340° North 96 110 6,400  Level Jacksonville Center
10:59PM 28.7906 -81.0992 343° North 96 110 6,500  Climbing Jacksonville Center
11:00PM 28.8178 -81.1011 356° North 98 113 6,500  Level Jacksonville Center
11:01PM 28.8450 -81.1006 North 97 112 6,500  Level Jacksonville Center
11:02PM 28.8719 -81.1050 352° North 97 112 6,500  Level Jacksonville Center
11:03PM 28.8992 -81.1114 348° North 97 112 6,600  Climbing Jacksonville Center
11:04PM 28.9286 -81.1158 352° North 98 113 6,600 -60 Level Jacksonville Center
11:05PM 28.9558 -81.1200 352° North 98 113 6,500 -60 Descending Jacksonville Center
11:06PM 28.9808 -81.1242 352° North 98 113 6,500  Level Jacksonville Center
11:07PM 29.0081 -81.1286 352° North 98 113 6,500  Level Jacksonville Center
11:08PM 29.0331 -81.1328 352° North 95 109 6,500  Level Jacksonville Center
11:09PM 29.0583 -81.1394 347° North 90 104 6,600  Climbing Jacksonville Center
11:10PM 29.0833 -81.1439 351° North 93 107 6,600  Level Jacksonville Center
11:11PM 29.1106 -81.1481 352° North 91 105 6,600 -60 Level Jacksonville Center
11:12PM 29.1336 -81.1547 346° North 93 107 6,500  Descending Jacksonville Center
11:13PM 29.1589 -81.1592 351° North 92 106 6,600  Climbing Jacksonville Center
11:14PM 29.1861 -81.1681 344° North 95 109 6,600 -60 Level Jacksonville Center
11:15PM 29.2133 -81.1772 344° North 93 107 6,500 -60 Descending Jacksonville Center
11:16PM 29.2342 -81.1817 349° North 94 108 6,500  Level Jacksonville Center
11:17PM 29.2636 -81.1883 349° North 95 109 6,600  Climbing Jacksonville Center
11:18PM 29.2844 -81.1903 355° North 95 109 6,600 -60 Level Jacksonville Center
11:19PM 29.3139 -81.1992 345° North 96 110 6,500 -60 Descending Jacksonville Center
11:20PM 29.3367 -81.2036 350° North 97 112 6,500 -60 Level Jacksonville Center
11:21PM 29.3639 -81.2103 348° North 96 110 6,400  Descending Jacksonville Center
11:22PM 29.3892 -81.2169 347° North 91 105 6,500  Climbing Jacksonville Center
11:23PM 29.4100 -81.2192 355° North 91 105 6,500  Level Jacksonville Center
11:24PM 29.4289 -81.2236 348° North 92 106 6,500  Level Jacksonville Center
11:25PM 29.4561 -81.2303 348° North 96 110 6,500 -60 Level Jacksonville Center
11:26PM 29.4811 -81.2344 352° North 98 113 6,400 -60 Descending Jacksonville Center
11:27PM 29.5125 -81.2411 350° North 98 113 6,400  Level Jacksonville Center
11:28PM 29.5378 -81.2478 347° North 92 106 6,400  Level Jacksonville Center
11:29PM 29.5631 -81.2569 342° North 93 107 6,500  Climbing Jacksonville Center
11:30PM 29.5903 -81.2636 348° North 96 110 6,500 -60 Level Jacksonville Center
11:31PM 29.6175 -81.2706 347° North 94 108 6,400 -180 Descending Jacksonville Center
11:32PM 29.6425 -81.2725 356° North 95 109 6,200 -300 Descending Jacksonville Center
11:33PM 29.6675 -81.2744 356° North 87 100 5,800 -600 Descending Jacksonville Center
11:34PM 29.6906 -81.2811 346° North 89 102 5,100 -720 Descending Jacksonville Center
11:35PM 29.7178 -81.2831 356° North 97 112 4,400 -720 Descending Jacksonville Center
11:36PM 29.7447 -81.2803 North 94 108 3,700 -660 Descending Jacksonville Center
11:37PM 29.7697 -81.2775 North 90 104 3,100 -600 Descending Jacksonville Center